Airfield :
LOGIN :

Register | Disclaimer

   EN    FR    IT 

 










Legend :    VFR   Marginal VFR   IFR   Intensive IFR   Very Intensive IFR
Visi :
Ceiling :
>= 8 km
>= 3000ft
5 to 8 km
1000 to 3000 ft
1500m to 5 km
500 to 1000 ft
800 to 1500m
200 to 500 ft
< 800m
< 200 ft
Symbols :   Thunderstorms  Fog  Heavy snow  Heavy precipitations  Wind > 20 kt
SIGMETs :     Misc.  Thunderstorms  Icing  Turbulence  Mountain Waves  Volcanic Ashes







- Airport Elevation : 138 ft
- IATA code : RLG


ETNL - Rostock Laage

CURRENT METAR :
  • 180720Z 30017KT 9999 FEW028 BKN043 12/07 Q1019 BLU

EXPIRED METARs :
  • 180620Z 26010KT 9999 FEW035 BKN047 10/08 Q1018 BLU
  • 180520Z 24007KT 9999 FEW025 SCT045 08/07 Q1018 BLU+

TAF TAF ETNL
Valid from the 18 at 08:00 until the 18 at 17:00 UTC


180720Z 1808/1817 29012KT 9999 NSW SCT030
TEMPO 1808/1812 30015G25KT 5000 SHRA BKN020TCU
TEMPO 1812/1817 30020G33KT 5000 SHRA BKN030TCU BY ETGL
No reported NOTAMs for that airfield.



MET'MAP, your aeronautical weather chart ! - Copyright ORBIFLY December 2007 - Disclaimer

ORBIFLY MET'MAP TEAM :

Programming & Development : Alexandra Zaïnal
Concept & Development : Baudouin d'Aumeries
Co-Development & Prog : Marc-Olivier Méhu
Technical & hardware support : Manuel Goepfert

Contact : metmap@orbifly.com




SOURCES & CREDITS :

   NOAA